sensor_id;sensor_type;location;lat;lon;timestamp;temperature;humidity
13521;DHT22;6832;51.186;3.236;2023-07-24T00:01:51;27.20;55.70
13521;DHT22;6832;51.186;3.236;2023-07-24T00:04:18;27.10;55.60
13521;DHT22;6832;51.186;3.236;2023-07-24T00:06:45;27.10;55.60
13521;DHT22;6832;51.186;3.236;2023-07-24T00:09:12;27.10;55.60
13521;DHT22;6832;51.186;3.236;2023-07-24T00:11:39;27.10;55.70
13521;DHT22;6832;51.186;3.236;2023-07-24T00:14:07;27.10;55.70
13521;DHT22;6832;51.186;3.236;2023-07-24T00:16:34;27.10;55.70
13521;DHT22;6832;51.186;3.236;2023-07-24T00:19:01;27.10;55.70
13521;DHT22;6832;51.186;3.236;2023-07-24T00:21:28;27.10;55.70
13521;DHT22;6832;51.186;3.236;2023-07-24T00:23:55;27.10;55.70
13521;DHT22;6832;51.186;3.236;2023-07-24T00:26:22;27.10;56.30
13521;DHT22;6832;51.186;3.236;2023-07-24T00:28:49;27.10;55.70
13521;DHT22;6832;51.186;3.236;2023-07-24T00:31:18;27.00;55.70
13521;DHT22;6832;51.186;3.236;2023-07-24T00:33:44;27.10;56.30
13521;DHT22;6832;51.186;3.236;2023-07-24T00:36:11;27.00;55.70
13521;DHT22;6832;51.186;3.236;2023-07-24T00:38:39;27.00;55.70
13521;DHT22;6832;51.186;3.236;2023-07-24T00:41:05;27.00;56.30
13521;DHT22;6832;51.186;3.236;2023-07-24T00:43:32;27.00;55.70
13521;DHT22;6832;51.186;3.236;2023-07-24T00:45:59;27.00;55.70
13521;DHT22;6832;51.186;3.236;2023-07-24T00:48:27;27.00;55.70
13521;DHT22;6832;51.186;3.236;2023-07-24T00:50:55;27.00;55.70
13521;DHT22;6832;51.186;3.236;2023-07-24T00:53:22;27.00;55.70
13521;DHT22;6832;51.186;3.236;2023-07-24T00:55:49;27.00;55.70
13521;DHT22;6832;51.186;3.236;2023-07-24T00:58:17;27.00;55.80
13521;DHT22;6832;51.186;3.236;2023-07-24T01:00:45;27.00;56.30
13521;DHT22;6832;51.186;3.236;2023-07-24T01:03:12;27.00;55.70
13521;DHT22;6832;51.186;3.236;2023-07-24T01:05:40;27.00;55.80
13521;DHT22;6832;51.186;3.236;2023-07-24T01:08:07;26.90;55.70
13521;DHT22;6832;51.186;3.236;2023-07-24T01:10:34;27.00;55.80
13521;DHT22;6832;51.186;3.236;2023-07-24T01:13:05;27.00;55.80
13521;DHT22;6832;51.186;3.236;2023-07-24T01:15:37;27.00;55.80
13521;DHT22;6832;51.186;3.236;2023-07-24T01:18:09;27.00;55.80
13521;DHT22;6832;51.186;3.236;2023-07-24T01:20:37;27.00;55.80
13521;DHT22;6832;51.186;3.236;2023-07-24T01:23:23;27.00;55.80
13521;DHT22;6832;51.186;3.236;2023-07-24T01:25:58;26.90;55.70
13521;DHT22;6832;51.186;3.236;2023-07-24T01:28:25;26.90;55.70
13521;DHT22;6832;51.186;3.236;2023-07-24T01:30:53;26.90;55.70
13521;DHT22;6832;51.186;3.236;2023-07-24T01:33:20;26.90;55.70
13521;DHT22;6832;51.186;3.236;2023-07-24T01:35:49;26.90;55.70
13521;DHT22;6832;51.186;3.236;2023-07-24T01:38:17;26.90;55.80
13521;DHT22;6832;51.186;3.236;2023-07-24T01:40:45;26.90;55.70
13521;DHT22;6832;51.186;3.236;2023-07-24T01:43:14;26.90;55.70
13521;DHT22;6832;51.186;3.236;2023-07-24T01:45:41;26.90;55.70
13521;DHT22;6832;51.186;3.236;2023-07-24T01:48:08;26.90;55.80
13521;DHT22;6832;51.186;3.236;2023-07-24T01:50:35;26.90;55.80
13521;DHT22;6832;51.186;3.236;2023-07-24T01:53:02;26.90;55.80
13521;DHT22;6832;51.186;3.236;2023-07-24T01:55:29;26.90;55.90
13521;DHT22;6832;51.186;3.236;2023-07-24T01:57:55;26.90;55.90
13521;DHT22;6832;51.186;3.236;2023-07-24T02:00:24;26.90;55.80
13521;DHT22;6832;51.186;3.236;2023-07-24T02:02:50;26.90;55.80
13521;DHT22;6832;51.186;3.236;2023-07-24T02:05:17;26.90;55.80
13521;DHT22;6832;51.186;3.236;2023-07-24T02:07:44;26.90;55.90
13521;DHT22;6832;51.186;3.236;2023-07-24T02:10:11;26.90;55.90
13521;DHT22;6832;51.186;3.236;2023-07-24T02:12:38;26.80;55.80
13521;DHT22;6832;51.186;3.236;2023-07-24T02:15:06;26.80;55.80
13521;DHT22;6832;51.186;3.236;2023-07-24T02:17:34;26.90;55.90
13521;DHT22;6832;51.186;3.236;2023-07-24T02:20:01;26.90;55.90
13521;DHT22;6832;51.186;3.236;2023-07-24T02:22:28;26.80;56.40
13521;DHT22;6832;51.186;3.236;2023-07-24T02:24:57;26.90;55.90
13521;DHT22;6832;51.186;3.236;2023-07-24T02:27:25;26.90;55.90
13521;DHT22;6832;51.186;3.236;2023-07-24T02:29:53;26.80;55.80
13521;DHT22;6832;51.186;3.236;2023-07-24T02:32:20;26.80;55.80
13521;DHT22;6832;51.186;3.236;2023-07-24T02:34:49;26.80;55.90
13521;DHT22;6832;51.186;3.236;2023-07-24T02:37:16;26.80;55.90
13521;DHT22;6832;51.186;3.236;2023-07-24T02:39:43;26.80;55.90
13521;DHT22;6832;51.186;3.236;2023-07-24T02:42:10;26.80;55.90
13521;DHT22;6832;51.186;3.236;2023-07-24T02:44:37;26.80;55.90
13521;DHT22;6832;51.186;3.236;2023-07-24T02:47:04;26.80;55.90
13521;DHT22;6832;51.186;3.236;2023-07-24T02:49:32;26.80;55.90
13521;DHT22;6832;51.186;3.236;2023-07-24T02:52:00;26.80;55.90
13521;DHT22;6832;51.186;3.236;2023-07-24T02:54:27;26.80;55.90
13521;DHT22;6832;51.186;3.236;2023-07-24T02:56:54;26.80;55.90
13521;DHT22;6832;51.186;3.236;2023-07-24T02:59:21;26.80;55.90
13521;DHT22;6832;51.186;3.236;2023-07-24T03:01:48;26.70;55.90
13521;DHT22;6832;51.186;3.236;2023-07-24T03:04:15;26.80;55.90
13521;DHT22;6832;51.186;3.236;2023-07-24T03:06:42;26.80;55.90
13521;DHT22;6832;51.186;3.236;2023-07-24T03:09:10;26.80;55.90
13521;DHT22;6832;51.186;3.236;2023-07-24T03:11:37;26.80;55.90
13521;DHT22;6832;51.186;3.236;2023-07-24T03:14:04;26.80;55.90
13521;DHT22;6832;51.186;3.236;2023-07-24T03:16:30;26.80;55.90
13521;DHT22;6832;51.186;3.236;2023-07-24T03:18:57;26.80;55.90
13521;DHT22;6832;51.186;3.236;2023-07-24T03:21:24;26.80;55.90
13521;DHT22;6832;51.186;3.236;2023-07-24T03:23:51;26.80;56.00
13521;DHT22;6832;51.186;3.236;2023-07-24T03:26:19;26.70;55.90
13521;DHT22;6832;51.186;3.236;2023-07-24T03:28:46;26.70;55.90
13521;DHT22;6832;51.186;3.236;2023-07-24T03:31:13;26.70;55.90
13521;DHT22;6832;51.186;3.236;2023-07-24T03:33:40;26.70;55.90
13521;DHT22;6832;51.186;3.236;2023-07-24T03:36:07;26.70;55.90
13521;DHT22;6832;51.186;3.236;2023-07-24T03:38:34;26.70;55.90
13521;DHT22;6832;51.186;3.236;2023-07-24T03:41:00;26.70;55.90
13521;DHT22;6832;51.186;3.236;2023-07-24T03:43:29;26.70;55.90
13521;DHT22;6832;51.186;3.236;2023-07-24T03:45:55;26.70;55.90
13521;DHT22;6832;51.186;3.236;2023-07-24T03:48:22;26.70;55.90
13521;DHT22;6832;51.186;3.236;2023-07-24T03:50:49;26.60;55.90
13521;DHT22;6832;51.186;3.236;2023-07-24T03:53:16;26.70;55.90
13521;DHT22;6832;51.186;3.236;2023-07-24T03:55:43;26.70;55.90
13521;DHT22;6832;51.186;3.236;2023-07-24T03:58:11;26.70;55.90
13521;DHT22;6832;51.186;3.236;2023-07-24T04:00:39;26.70;55.90
13521;DHT22;6832;51.186;3.236;2023-07-24T04:03:06;26.70;55.90
13521;DHT22;6832;51.186;3.236;2023-07-24T04:05:34;26.70;55.90
13521;DHT22;6832;51.186;3.236;2023-07-24T04:08:01;26.60;55.90
13521;DHT22;6832;51.186;3.236;2023-07-24T04:10:28;26.70;56.00
13521;DHT22;6832;51.186;3.236;2023-07-24T04:12:56;26.70;56.00
13521;DHT22;6832;51.186;3.236;2023-07-24T04:15:23;26.70;56.00
13521;DHT22;6832;51.186;3.236;2023-07-24T04:17:52;26.70;56.00
13521;DHT22;6832;51.186;3.236;2023-07-24T04:20:18;26.70;56.00
13521;DHT22;6832;51.186;3.236;2023-07-24T04:22:45;26.70;56.00
13521;DHT22;6832;51.186;3.236;2023-07-24T04:25:12;26.60;56.60
13521;DHT22;6832;51.186;3.236;2023-07-24T04:27:39;26.70;56.00
13521;DHT22;6832;51.186;3.236;2023-07-24T04:30:07;26.70;56.00
13521;DHT22;6832;51.186;3.236;2023-07-24T04:32:34;26.70;56.00
13521;DHT22;6832;51.186;3.236;2023-07-24T04:35:03;26.70;56.00
13521;DHT22;6832;51.186;3.236;2023-07-24T04:37:30;26.70;56.00
13521;DHT22;6832;51.186;3.236;2023-07-24T04:39:57;26.60;55.90
13521;DHT22;6832;51.186;3.236;2023-07-24T04:42:24;26.60;56.00
13521;DHT22;6832;51.186;3.236;2023-07-24T04:44:51;26.70;56.00
13521;DHT22;6832;51.186;3.236;2023-07-24T04:47:18;26.60;56.00
13521;DHT22;6832;51.186;3.236;2023-07-24T04:49:45;26.60;56.00
13521;DHT22;6832;51.186;3.236;2023-07-24T04:52:13;26.60;56.00
13521;DHT22;6832;51.186;3.236;2023-07-24T04:54:40;26.60;56.00
13521;DHT22;6832;51.186;3.236;2023-07-24T04:57:06;26.70;56.10
13521;DHT22;6832;51.186;3.236;2023-07-24T04:59:33;26.60;56.00
13521;DHT22;6832;51.186;3.236;2023-07-24T05:02:00;26.60;56.00
13521;DHT22;6832;51.186;3.236;2023-07-24T05:04:27;26.70;56.10
13521;DHT22;6832;51.186;3.236;2023-07-24T05:06:54;26.60;56.00
13521;DHT22;6832;51.186;3.236;2023-07-24T05:09:22;26.70;56.10
13521;DHT22;6832;51.186;3.236;2023-07-24T05:11:49;26.60;56.00
13521;DHT22;6832;51.186;3.236;2023-07-24T05:14:16;26.60;56.10
13521;DHT22;6832;51.186;3.236;2023-07-24T05:16:43;26.70;56.10
13521;DHT22;6832;51.186;3.236;2023-07-24T05:19:10;26.60;56.00
13521;DHT22;6832;51.186;3.236;2023-07-24T05:21:37;26.70;56.10
13521;DHT22;6832;51.186;3.236;2023-07-24T05:24:04;26.70;56.10
13521;DHT22;6832;51.186;3.236;2023-07-24T05:26:32;26.60;56.00
13521;DHT22;6832;51.186;3.236;2023-07-24T05:28:59;26.60;56.00
13521;DHT22;6832;51.186;3.236;2023-07-24T05:31:26;26.60;56.00
13521;DHT22;6832;51.186;3.236;2023-07-24T05:33:52;26.60;56.10
13521;DHT22;6832;51.186;3.236;2023-07-24T05:36:19;26.60;56.00
13521;DHT22;6832;51.186;3.236;2023-07-24T05:38:46;26.60;56.10
13521;DHT22;6832;51.186;3.236;2023-07-24T05:41:13;26.70;56.20
13521;DHT22;6832;51.186;3.236;2023-07-24T05:43:41;26.60;56.10
13521;DHT22;6832;51.186;3.236;2023-07-24T05:46:08;26.60;56.10
13521;DHT22;6832;51.186;3.236;2023-07-24T05:48:35;26.60;56.10
13521;DHT22;6832;51.186;3.236;2023-07-24T05:51:02;26.70;56.20
13521;DHT22;6832;51.186;3.236;2023-07-24T05:53:29;26.70;56.20
13521;DHT22;6832;51.186;3.236;2023-07-24T05:55:57;26.60;56.10
13521;DHT22;6832;51.186;3.236;2023-07-24T05:58:25;26.60;56.10
13521;DHT22;6832;51.186;3.236;2023-07-24T06:00:53;26.60;56.10
13521;DHT22;6832;51.186;3.236;2023-07-24T06:03:20;26.60;56.10
13521;DHT22;6832;51.186;3.236;2023-07-24T06:05:51;26.60;56.10
13521;DHT22;6832;51.186;3.236;2023-07-24T06:08:18;26.60;56.20
13521;DHT22;6832;51.186;3.236;2023-07-24T06:10:46;26.70;56.20
13521;DHT22;6832;51.186;3.236;2023-07-24T06:13:14;26.60;56.20
13521;DHT22;6832;51.186;3.236;2023-07-24T06:15:41;26.70;56.20
13521;DHT22;6832;51.186;3.236;2023-07-24T06:18:09;26.70;56.30
13521;DHT22;6832;51.186;3.236;2023-07-24T06:20:36;26.70;56.20
13521;DHT22;6832;51.186;3.236;2023-07-24T06:23:03;26.70;56.20
13521;DHT22;6832;51.186;3.236;2023-07-24T06:25:30;26.70;56.30
13521;DHT22;6832;51.186;3.236;2023-07-24T06:27:57;26.70;56.20
13521;DHT22;6832;51.186;3.236;2023-07-24T06:30:24;26.70;56.20
13521;DHT22;6832;51.186;3.236;2023-07-24T06:32:51;26.70;56.20
13521;DHT22;6832;51.186;3.236;2023-07-24T06:35:20;26.70;56.20
13521;DHT22;6832;51.186;3.236;2023-07-24T06:37:46;26.70;56.20
13521;DHT22;6832;51.186;3.236;2023-07-24T06:40:13;26.70;56.20
13521;DHT22;6832;51.186;3.236;2023-07-24T06:42:40;26.70;56.30
13521;DHT22;6832;51.186;3.236;2023-07-24T06:45:08;26.70;56.20
13521;DHT22;6832;51.186;3.236;2023-07-24T06:47:35;26.70;56.20
13521;DHT22;6832;51.186;3.236;2023-07-24T06:50:02;26.70;56.20
13521;DHT22;6832;51.186;3.236;2023-07-24T06:52:31;26.70;56.20
13521;DHT22;6832;51.186;3.236;2023-07-24T06:54:58;26.70;56.20
13521;DHT22;6832;51.186;3.236;2023-07-24T06:57:25;26.70;56.20
13521;DHT22;6832;51.186;3.236;2023-07-24T06:59:52;26.70;56.20
13521;DHT22;6832;51.186;3.236;2023-07-24T07:02:19;26.80;56.30
13521;DHT22;6832;51.186;3.236;2023-07-24T07:04:45;26.80;56.30
13521;DHT22;6832;51.186;3.236;2023-07-24T07:07:12;26.80;56.30
13521;DHT22;6832;51.186;3.236;2023-07-24T07:09:41;26.80;56.30
13521;DHT22;6832;51.186;3.236;2023-07-24T07:12:08;26.80;56.30
13521;DHT22;6832;51.186;3.236;2023-07-24T07:14:35;26.80;56.30
13521;DHT22;6832;51.186;3.236;2023-07-24T07:17:02;26.80;56.30
13521;DHT22;6832;51.186;3.236;2023-07-24T07:19:28;26.80;56.20
13521;DHT22;6832;51.186;3.236;2023-07-24T07:21:55;26.80;56.30
13521;DHT22;6832;51.186;3.236;2023-07-24T07:24:22;26.80;56.20
13521;DHT22;6832;51.186;3.236;2023-07-24T07:26:50;26.80;56.30
13521;DHT22;6832;51.186;3.236;2023-07-24T07:29:17;26.80;56.30
13521;DHT22;6832;51.186;3.236;2023-07-24T07:31:44;26.90;56.40
13521;DHT22;6832;51.186;3.236;2023-07-24T07:34:11;26.80;56.30
13521;DHT22;6832;51.186;3.236;2023-07-24T07:36:38;26.90;56.40
13521;DHT22;6832;51.186;3.236;2023-07-24T07:39:04;26.90;56.40
13521;DHT22;6832;51.186;3.236;2023-07-24T07:41:31;26.90;56.40
13521;DHT22;6832;51.186;3.236;2023-07-24T07:43:59;26.90;56.40
13521;DHT22;6832;51.186;3.236;2023-07-24T07:46:26;26.90;56.40
13521;DHT22;6832;51.186;3.236;2023-07-24T07:48:53;26.90;56.40
13521;DHT22;6832;51.186;3.236;2023-07-24T07:51:20;27.00;56.40
13521;DHT22;6832;51.186;3.236;2023-07-24T07:53:47;27.00;56.50
13521;DHT22;6832;51.186;3.236;2023-07-24T07:56:14;27.00;56.40
13521;DHT22;6832;51.186;3.236;2023-07-24T07:58:40;27.00;56.40
13521;DHT22;6832;51.186;3.236;2023-07-24T08:01:09;27.00;56.40
13521;DHT22;6832;51.186;3.236;2023-07-24T08:03:36;27.10;56.50
13521;DHT22;6832;51.186;3.236;2023-07-24T08:06:03;27.00;56.50
13521;DHT22;6832;51.186;3.236;2023-07-24T08:08:30;27.10;56.50
13521;DHT22;6832;51.186;3.236;2023-07-24T08:10:56;27.10;56.50
13521;DHT22;6832;51.186;3.236;2023-07-24T08:13:23;27.20;56.50
13521;DHT22;6832;51.186;3.236;2023-07-24T08:15:50;27.20;56.60
13521;DHT22;6832;51.186;3.236;2023-07-24T08:18:18;27.20;56.50
13521;DHT22;6832;51.186;3.236;2023-07-24T08:20:45;27.20;56.50
13521;DHT22;6832;51.186;3.236;2023-07-24T08:23:12;27.20;56.50
13521;DHT22;6832;51.186;3.236;2023-07-24T08:25:39;27.20;56.50
13521;DHT22;6832;51.186;3.236;2023-07-24T08:28:06;27.30;57.20
13521;DHT22;6832;51.186;3.236;2023-07-24T08:30:33;27.30;56.60
13521;DHT22;6832;51.186;3.236;2023-07-24T08:33:00;27.30;56.50
13521;DHT22;6832;51.186;3.236;2023-07-24T08:35:29;27.30;56.50
13521;DHT22;6832;51.186;3.236;2023-07-24T08:37:56;27.30;56.50
13521;DHT22;6832;51.186;3.236;2023-07-24T08:40:22;27.30;56.50
13521;DHT22;6832;51.186;3.236;2023-07-24T08:42:49;27.30;56.50
13521;DHT22;6832;51.186;3.236;2023-07-24T08:45:17;27.30;56.40
13521;DHT22;6832;51.186;3.236;2023-07-24T08:47:45;27.40;56.50
13521;DHT22;6832;51.186;3.236;2023-07-24T08:50:12;27.40;56.40
13521;DHT22;6832;51.186;3.236;2023-07-24T08:52:42;27.40;56.40
13521;DHT22;6832;51.186;3.236;2023-07-24T08:55:10;27.40;56.40
13521;DHT22;6832;51.186;3.236;2023-07-24T08:57:37;27.50;56.40
13521;DHT22;6832;51.186;3.236;2023-07-24T09:00:05;27.50;56.40
13521;DHT22;6832;51.186;3.236;2023-07-24T09:02:32;27.50;56.40
13521;DHT22;6832;51.186;3.236;2023-07-24T09:05:00;27.50;56.30
13521;DHT22;6832;51.186;3.236;2023-07-24T09:07:27;27.60;56.40
13521;DHT22;6832;51.186;3.236;2023-07-24T09:09:55;27.60;56.40
13521;DHT22;6832;51.186;3.236;2023-07-24T09:12:22;27.60;56.30
13521;DHT22;6832;51.186;3.236;2023-07-24T09:15:01;27.60;56.40
13521;DHT22;6832;51.186;3.236;2023-07-24T09:17:28;27.60;56.30
13521;DHT22;6832;51.186;3.236;2023-07-24T09:19:56;27.70;56.30
13521;DHT22;6832;51.186;3.236;2023-07-24T09:22:23;27.70;56.20
13521;DHT22;6832;51.186;3.236;2023-07-24T09:24:53;27.70;56.20
13521;DHT22;6832;51.186;3.236;2023-07-24T09:27:25;27.70;56.10
13521;DHT22;6832;51.186;3.236;2023-07-24T09:29:52;27.70;56.10
13521;DHT22;6832;51.186;3.236;2023-07-24T09:32:20;27.70;56.10
13521;DHT22;6832;51.186;3.236;2023-07-24T09:34:47;27.70;56.00
13521;DHT22;6832;51.186;3.236;2023-07-24T09:37:25;27.70;56.00
13521;DHT22;6832;51.186;3.236;2023-07-24T09:39:52;27.80;56.00
13521;DHT22;6832;51.186;3.236;2023-07-24T09:42:29;27.80;55.90
13521;DHT22;6832;51.186;3.236;2023-07-24T09:44:56;27.80;55.80
13521;DHT22;6832;51.186;3.236;2023-07-24T09:47:23;27.80;55.80
13521;DHT22;6832;51.186;3.236;2023-07-24T09:49:50;27.80;55.80
13521;DHT22;6832;51.186;3.236;2023-07-24T09:52:18;27.80;55.80
13521;DHT22;6832;51.186;3.236;2023-07-24T09:54:53;27.80;55.80
13521;DHT22;6832;51.186;3.236;2023-07-24T09:57:22;27.80;55.70
13521;DHT22;6832;51.186;3.236;2023-07-24T09:59:52;27.80;55.70
13521;DHT22;6832;51.186;3.236;2023-07-24T10:02:20;27.80;55.70
13521;DHT22;6832;51.186;3.236;2023-07-24T10:04:47;27.80;55.80
13521;DHT22;6832;51.186;3.236;2023-07-24T10:07:15;27.80;55.80
13521;DHT22;6832;51.186;3.236;2023-07-24T10:09:43;27.80;55.80
13521;DHT22;6832;51.186;3.236;2023-07-24T10:12:10;27.80;55.80
13521;DHT22;6832;51.186;3.236;2023-07-24T10:14:37;27.80;55.80
13521;DHT22;6832;51.186;3.236;2023-07-24T10:17:06;27.80;55.80
13521;DHT22;6832;51.186;3.236;2023-07-24T10:19:36;27.80;55.70
13521;DHT22;6832;51.186;3.236;2023-07-24T10:22:06;27.80;55.60
13521;DHT22;6832;51.186;3.236;2023-07-24T10:24:33;27.80;55.60
13521;DHT22;6832;51.186;3.236;2023-07-24T10:27:02;27.80;55.60
13521;DHT22;6832;51.186;3.236;2023-07-24T10:29:34;27.80;55.50
13521;DHT22;6832;51.186;3.236;2023-07-24T10:32:01;27.90;55.50
13521;DHT22;6832;51.186;3.236;2023-07-24T10:34:37;27.80;55.40
13521;DHT22;6832;51.186;3.236;2023-07-24T10:37:07;27.90;55.50
13521;DHT22;6832;51.186;3.236;2023-07-24T10:39:38;27.80;55.40
13521;DHT22;6832;51.186;3.236;2023-07-24T10:42:07;27.80;55.40
13521;DHT22;6832;51.186;3.236;2023-07-24T10:44:34;27.80;55.40
13521;DHT22;6832;51.186;3.236;2023-07-24T10:47:01;27.80;55.40
13521;DHT22;6832;51.186;3.236;2023-07-24T10:49:28;27.80;55.40
13521;DHT22;6832;51.186;3.236;2023-07-24T10:51:58;27.80;55.50
13521;DHT22;6832;51.186;3.236;2023-07-24T10:54:25;27.70;55.40
13521;DHT22;6832;51.186;3.236;2023-07-24T10:56:58;27.70;55.40
13521;DHT22;6832;51.186;3.236;2023-07-24T10:59:35;27.70;55.30
13521;DHT22;6832;51.186;3.236;2023-07-24T11:02:04;27.70;55.30
13521;DHT22;6832;51.186;3.236;2023-07-24T11:04:31;27.70;55.40
13521;DHT22;6832;51.186;3.236;2023-07-24T11:07:00;27.70;55.40
13521;DHT22;6832;51.186;3.236;2023-07-24T11:09:34;27.70;55.40
13521;DHT22;6832;51.186;3.236;2023-07-24T11:12:10;27.70;55.30
13521;DHT22;6832;51.186;3.236;2023-07-24T11:14:52;27.70;55.30
13521;DHT22;6832;51.186;3.236;2023-07-24T11:17:20;27.70;55.30
13521;DHT22;6832;51.186;3.236;2023-07-24T11:19:46;27.70;55.40
13521;DHT22;6832;51.186;3.236;2023-07-24T11:22:15;27.70;55.40
13521;DHT22;6832;51.186;3.236;2023-07-24T11:24:43;27.60;55.30
13521;DHT22;6832;51.186;3.236;2023-07-24T11:27:12;27.60;55.30
13521;DHT22;6832;51.186;3.236;2023-07-24T11:29:40;27.60;55.30
13521;DHT22;6832;51.186;3.236;2023-07-24T11:32:07;27.60;55.30
13521;DHT22;6832;51.186;3.236;2023-07-24T11:34:35;27.60;55.30
13521;DHT22;6832;51.186;3.236;2023-07-24T11:37:02;27.60;55.40
13521;DHT22;6832;51.186;3.236;2023-07-24T11:39:30;27.60;55.40
13521;DHT22;6832;51.186;3.236;2023-07-24T11:41:59;27.60;55.50
13521;DHT22;6832;51.186;3.236;2023-07-24T11:44:27;27.60;55.50
13521;DHT22;6832;51.186;3.236;2023-07-24T11:47:00;27.60;55.50
13521;DHT22;6832;51.186;3.236;2023-07-24T11:49:28;27.60;55.60
13521;DHT22;6832;51.186;3.236;2023-07-24T11:52:00;27.60;55.60
13521;DHT22;6832;51.186;3.236;2023-07-24T11:54:27;27.60;55.60
13521;DHT22;6832;51.186;3.236;2023-07-24T11:56:56;27.70;55.70
13521;DHT22;6832;51.186;3.236;2023-07-24T11:59:24;27.70;55.60
13521;DHT22;6832;51.186;3.236;2023-07-24T12:01:51;27.70;55.60
13521;DHT22;6832;51.186;3.236;2023-07-24T12:04:19;27.70;55.50
13521;DHT22;6832;51.186;3.236;2023-07-24T12:06:46;27.80;55.60
13521;DHT22;6832;51.186;3.236;2023-07-24T12:09:13;27.70;55.50
13521;DHT22;6832;51.186;3.236;2023-07-24T12:11:40;27.80;55.50
13521;DHT22;6832;51.186;3.236;2023-07-24T12:14:09;27.80;55.50
13521;DHT22;6832;51.186;3.236;2023-07-24T12:16:36;27.80;55.40
13521;DHT22;6832;51.186;3.236;2023-07-24T12:19:04;27.80;55.40
13521;DHT22;6832;51.186;3.236;2023-07-24T12:21:31;27.80;55.40
13521;DHT22;6832;51.186;3.236;2023-07-24T12:23:58;27.80;55.40
13521;DHT22;6832;51.186;3.236;2023-07-24T12:26:25;27.80;55.50
13521;DHT22;6832;51.186;3.236;2023-07-24T12:28:53;27.80;55.50
13521;DHT22;6832;51.186;3.236;2023-07-24T12:31:21;27.80;55.60
13521;DHT22;6832;51.186;3.236;2023-07-24T12:33:48;27.80;55.70
13521;DHT22;6832;51.186;3.236;2023-07-24T12:36:15;27.90;55.90
13521;DHT22;6832;51.186;3.236;2023-07-24T12:38:42;27.90;55.80
13521;DHT22;6832;51.186;3.236;2023-07-24T12:41:09;28.00;55.90
13521;DHT22;6832;51.186;3.236;2023-07-24T12:43:36;28.00;55.90
13521;DHT22;6832;51.186;3.236;2023-07-24T12:46:03;28.10;55.90
13521;DHT22;6832;51.186;3.236;2023-07-24T12:48:31;28.20;56.00
13521;DHT22;6832;51.186;3.236;2023-07-24T12:50:58;28.20;56.00
13521;DHT22;6832;51.186;3.236;2023-07-24T12:53:26;28.30;56.10
13521;DHT22;6832;51.186;3.236;2023-07-24T12:55:53;28.40;56.20
13521;DHT22;6832;51.186;3.236;2023-07-24T12:58:20;28.50;56.30
13521;DHT22;6832;51.186;3.236;2023-07-24T13:00:47;28.60;56.40
13521;DHT22;6832;51.186;3.236;2023-07-24T13:03:14;28.70;56.40
13521;DHT22;6832;51.186;3.236;2023-07-24T13:05:43;28.80;56.30
13521;DHT22;6832;51.186;3.236;2023-07-24T13:08:10;28.90;56.30
13521;DHT22;6832;51.186;3.236;2023-07-24T13:10:37;29.00;56.20
13521;DHT22;6832;51.186;3.236;2023-07-24T13:13:04;29.20;56.10
13521;DHT22;6832;51.186;3.236;2023-07-24T13:15:31;29.30;56.00
13521;DHT22;6832;51.186;3.236;2023-07-24T13:17:58;29.40;55.90
13521;DHT22;6832;51.186;3.236;2023-07-24T13:20:25;29.50;55.80
13521;DHT22;6832;51.186;3.236;2023-07-24T13:22:53;29.50;55.70
13521;DHT22;6832;51.186;3.236;2023-07-24T13:25:20;29.60;55.50
13521;DHT22;6832;51.186;3.236;2023-07-24T13:27:47;29.60;55.40
13521;DHT22;6832;51.186;3.236;2023-07-24T13:30:14;29.70;55.40
13521;DHT22;6832;51.186;3.236;2023-07-24T13:32:41;29.70;55.30
13521;DHT22;6832;51.186;3.236;2023-07-24T13:35:08;29.80;55.20
13521;DHT22;6832;51.186;3.236;2023-07-24T13:37:35;29.80;55.20
13521;DHT22;6832;51.186;3.236;2023-07-24T13:40:04;29.80;55.00
13521;DHT22;6832;51.186;3.236;2023-07-24T13:42:31;29.80;55.00
13521;DHT22;6832;51.186;3.236;2023-07-24T13:44:58;29.80;55.00
13521;DHT22;6832;51.186;3.236;2023-07-24T13:47:25;29.80;54.90
13521;DHT22;6832;51.186;3.236;2023-07-24T13:49:52;29.80;54.80
13521;DHT22;6832;51.186;3.236;2023-07-24T13:52:19;29.80;54.80
13521;DHT22;6832;51.186;3.236;2023-07-24T13:54:46;29.80;54.80
13521;DHT22;6832;51.186;3.236;2023-07-24T13:57:14;29.80;54.70
13521;DHT22;6832;51.186;3.236;2023-07-24T13:59:41;29.80;54.70
13521;DHT22;6832;51.186;3.236;2023-07-24T14:02:08;29.80;54.70
13521;DHT22;6832;51.186;3.236;2023-07-24T14:04:35;29.70;54.60
13521;DHT22;6832;51.186;3.236;2023-07-24T14:07:01;29.70;54.60
13521;DHT22;6832;51.186;3.236;2023-07-24T14:09:28;29.70;54.60
13521;DHT22;6832;51.186;3.236;2023-07-24T14:11:56;29.70;54.60
13521;DHT22;6832;51.186;3.236;2023-07-24T14:14:24;29.60;54.50
13521;DHT22;6832;51.186;3.236;2023-07-24T14:16:51;29.70;54.60
13521;DHT22;6832;51.186;3.236;2023-07-24T14:19:18;29.60;54.60
13521;DHT22;6832;51.186;3.236;2023-07-24T14:21:45;29.60;54.60
13521;DHT22;6832;51.186;3.236;2023-07-24T14:24:12;29.60;54.60
13521;DHT22;6832;51.186;3.236;2023-07-24T14:26:39;29.60;54.60
13521;DHT22;6832;51.186;3.236;2023-07-24T14:29:06;29.50;54.60
13521;DHT22;6832;51.186;3.236;2023-07-24T14:31:34;29.50;54.60
13521;DHT22;6832;51.186;3.236;2023-07-24T14:34:01;29.50;54.60
13521;DHT22;6832;51.186;3.236;2023-07-24T14:36:28;29.50;54.60
13521;DHT22;6832;51.186;3.236;2023-07-24T14:38:59;29.50;54.60
13521;DHT22;6832;51.186;3.236;2023-07-24T14:41:26;29.50;54.60
13521;DHT22;6832;51.186;3.236;2023-07-24T14:43:53;29.50;54.60
13521;DHT22;6832;51.186;3.236;2023-07-24T14:46:19;29.50;54.70
13521;DHT22;6832;51.186;3.236;2023-07-24T14:48:48;29.50;54.70
13521;DHT22;6832;51.186;3.236;2023-07-24T14:51:15;29.40;54.60
13521;DHT22;6832;51.186;3.236;2023-07-24T14:53:42;29.50;54.70
13521;DHT22;6832;51.186;3.236;2023-07-24T14:56:09;29.40;54.60
13521;DHT22;6832;51.186;3.236;2023-07-24T14:58:36;29.40;54.60
13521;DHT22;6832;51.186;3.236;2023-07-24T15:01:02;29.40;54.60
13521;DHT22;6832;51.186;3.236;2023-07-24T15:03:29;29.40;54.60
13521;DHT22;6832;51.186;3.236;2023-07-24T15:05:58;29.40;54.70
13521;DHT22;6832;51.186;3.236;2023-07-24T15:08:29;29.30;54.60
13521;DHT22;6832;51.186;3.236;2023-07-24T15:10:56;29.30;54.60
13521;DHT22;6832;51.186;3.236;2023-07-24T15:13:23;29.30;54.60
13521;DHT22;6832;51.186;3.236;2023-07-24T15:15:50;29.30;54.60
13521;DHT22;6832;51.186;3.236;2023-07-24T15:18:16;29.30;54.60
13521;DHT22;6832;51.186;3.236;2023-07-24T15:20:43;29.30;54.70
13521;DHT22;6832;51.186;3.236;2023-07-24T15:23:12;29.30;54.60
13521;DHT22;6832;51.186;3.236;2023-07-24T15:25:39;29.30;54.60
13521;DHT22;6832;51.186;3.236;2023-07-24T15:28:08;29.30;54.70
13521;DHT22;6832;51.186;3.236;2023-07-24T15:30:34;29.20;54.60
13521;DHT22;6832;51.186;3.236;2023-07-24T15:33:01;29.20;54.60
13521;DHT22;6832;51.186;3.236;2023-07-24T15:35:28;29.20;54.70
13521;DHT22;6832;51.186;3.236;2023-07-24T15:37:55;29.20;54.70
13521;DHT22;6832;51.186;3.236;2023-07-24T15:40:23;29.20;54.60
13521;DHT22;6832;51.186;3.236;2023-07-24T15:42:50;29.20;54.60
13521;DHT22;6832;51.186;3.236;2023-07-24T15:45:17;29.20;54.60
13521;DHT22;6832;51.186;3.236;2023-07-24T15:47:44;29.20;54.60